Los Angeles, Texas
Current Conditions -  °F | °C
As of 8:53 PM on Tuesday 25 Nov 2014 (Local Time) from KCOT Reporting Station
Clear Clear  
Wind Chill: 50°   Ceiling: Unl
Heat Index: 50°   Visibility: 10mi
Dew Point: 36°   Wind: 5mph
Humidity: 59%   Direction: 340°NNW
Pressure: 30.27"   Gusts: NA
Location:  28.4056°N, 99.0861°W
Report Text: KCOT 260253Z AUTO 34004KT 10SM CLR 10/02 A3027 RMK AO2 SLP246 T01000022 51008
Loading
Personal Weather Stations






























Interactive Weather Map New forecast layout! Learn more

10-Day Weather Forecast

Advertisements
Track Severe Weather on mobile